createdAt,value
2019-01-24T00:05:05.670Z,52.10
2019-01-24T00:10:11.346Z,58.53
2019-01-24T00:15:16.815Z,47.10
2019-01-24T00:20:23.270Z,61.60
2019-01-24T00:25:28.698Z,53.17
2019-01-24T00:30:34.461Z,54.63
2019-01-24T00:35:40.667Z,60.67
2019-01-24T00:40:46.449Z,56.30
2019-01-24T00:45:52.268Z,58.10
2019-01-24T00:50:57.678Z,55.73
2019-01-24T00:56:03.796Z,61.23
2019-01-24T01:01:09.582Z,43.10
2019-01-24T01:06:15.127Z,62.33
2019-01-24T01:11:20.908Z,50.63
2019-01-24T01:16:26.679Z,57.90
2019-01-24T01:21:32.157Z,56.57
2019-01-24T01:26:38.058Z,57.20
2019-01-24T01:31:43.830Z,52.23
2019-01-24T01:36:49.477Z,50.03
2019-01-24T01:41:54.958Z,57.53
2019-01-24T01:47:00.815Z,54.63
2019-01-24T01:52:06.274Z,62.50
2019-01-24T01:57:11.775Z,54.33
2019-01-24T02:02:17.186Z,53.70
2019-01-24T02:07:22.611Z,58.53
2019-01-24T02:12:28.145Z,54.53
2019-01-24T02:17:33.919Z,62.63
2019-01-24T02:22:40.017Z,55.57
2019-01-24T02:27:45.505Z,68.07
2019-01-24T02:32:51.325Z,52.03
2019-01-24T02:37:57.086Z,55.37
2019-01-24T02:43:03.077Z,61.47
2019-01-24T02:48:08.831Z,60.53
2019-01-24T02:53:14.622Z,65.10
2019-01-24T02:58:20.746Z,67.27
2019-01-24T03:03:26.861Z,64.77
2019-01-24T03:08:32.290Z,62.23
2019-01-24T03:13:37.808Z,63.67
2019-01-24T03:18:43.234Z,58.77
2019-01-24T03:23:48.673Z,62.97
2019-01-24T03:28:54.126Z,71.60
2019-01-24T03:33:59.880Z,64.13
2019-01-24T03:39:08.819Z,65.57
2019-01-24T03:44:14.240Z,58.10
2019-01-24T03:49:20.337Z,65.00
2019-01-24T03:54:26.129Z,65.67
2019-01-24T03:59:32.114Z,65.07
2019-01-24T04:04:37.606Z,58.83
2019-01-24T04:09:43.016Z,74.50
2019-01-24T04:14:48.434Z,58.37
2019-01-24T04:19:54.004Z,57.07
2019-01-24T04:24:59.518Z,61.73
2019-01-24T04:30:06.190Z,62.90
2019-01-24T04:35:11.778Z,68.10
2019-01-24T04:40:18.351Z,57.87
2019-01-24T04:45:24.140Z,51.90
2019-01-24T04:50:29.924Z,61.77
2019-01-24T04:55:36.046Z,53.63
2019-01-24T05:00:41.890Z,50.60
2019-01-24T05:05:47.309Z,50.40
2019-01-24T05:10:52.752Z,52.93
2019-01-24T05:15:58.187Z,48.63
2019-01-24T05:21:03.658Z,57.90
2019-01-24T05:26:09.082Z,53.73
2019-01-24T05:31:14.860Z,46.50
2019-01-24T05:36:20.360Z,47.67
2019-01-24T05:41:25.788Z,36.27
2019-01-24T05:46:31.235Z,49.03
2019-01-24T05:51:37.126Z,45.20
2019-01-24T05:56:42.556Z,37.80
2019-01-24T06:01:48.328Z,40.40
2019-01-24T06:06:53.783Z,45.97
2019-01-24T06:11:59.622Z,43.87
2019-01-24T06:17:05.395Z,39.40
2019-01-24T06:22:10.843Z,42.80
2019-01-24T06:27:16.326Z,43.57
2019-01-24T06:32:21.762Z,54.53
2019-01-24T06:37:27.560Z,34.53
2019-01-24T06:42:33.002Z,49.40
2019-01-24T06:47:38.852Z,44.60
2019-01-24T06:52:44.281Z,43.50
2019-01-24T06:57:49.723Z,39.53
2019-01-24T07:02:55.885Z,40.60
2019-01-24T07:08:01.649Z,36.23
2019-01-24T07:13:07.424Z,40.77
2019-01-24T07:18:12.940Z,39.73
2019-01-24T07:23:18.371Z,44.30
2019-01-24T07:28:24.140Z,41.27
2019-01-24T07:33:29.690Z,42.63
2019-01-24T07:38:35.171Z,39.57
2019-01-24T07:43:40.589Z,43.00
2019-01-24T07:48:46.784Z,52.57
2019-01-24T07:53:52.634Z,43.73
2019-01-24T07:58:58.407Z,47.27
2019-01-24T08:04:03.845Z,52.07
2019-01-24T08:09:09.662Z,41.43
2019-01-24T08:14:15.083Z,45.10
2019-01-24T08:19:20.527Z,51.13
2019-01-24T08:24:26.313Z,37.50
2019-01-24T08:29:31.750Z,42.53
2019-01-24T08:34:37.198Z,38.40
2019-01-24T08:39:43.036Z,48.30
2019-01-24T08:44:48.458Z,50.13
2019-01-24T08:49:53.892Z,52.10
2019-01-24T08:55:00.013Z,49.10
2019-01-24T09:00:07.070Z,45.30
2019-01-24T09:05:12.559Z,51.27
2019-01-24T09:10:22.651Z,54.80
2019-01-24T09:15:29.257Z,58.13
2019-01-24T09:20:34.522Z,54.60
2019-01-24T09:25:39.941Z,55.07
2019-01-24T09:30:45.422Z,66.87
2019-01-24T09:35:51.194Z,52.53
2019-01-24T09:40:56.662Z,63.40
2019-01-24T09:46:02.514Z,58.03
2019-01-24T09:51:07.999Z,56.77
2019-01-24T09:56:13.774Z,65.37
2019-01-24T10:01:19.211Z,84.70
2019-01-24T10:06:24.698Z,67.87
2019-01-24T10:11:30.134Z,69.17
2019-01-24T10:16:35.963Z,59.77
2019-01-24T10:21:41.530Z,66.23
2019-01-24T10:26:47.372Z,56.13
2019-01-24T10:31:52.867Z,74.63
2019-01-24T10:36:58.358Z,90.00
2019-01-24T10:42:03.798Z,67.43
2019-01-24T10:47:09.230Z,68.87
2019-01-24T10:52:14.672Z,72.43
2019-01-24T10:57:20.931Z,71.13
2019-01-24T11:02:26.698Z,69.70
2019-01-24T11:07:32.122Z,65.13
2019-01-24T11:12:37.599Z,84.97
2019-01-24T11:17:43.007Z,101.90
2019-01-24T11:22:48.672Z,71.60
2019-01-24T11:27:54.787Z,73.50
2019-01-24T11:33:00.254Z,61.70
2019-01-24T11:38:07.145Z,70.70
2019-01-24T11:43:11.335Z,81.20
2019-01-24T11:48:18.743Z,63.90
2019-01-24T11:53:24.238Z,65.07
2019-01-24T11:58:30.102Z,71.10
2019-01-24T12:03:35.888Z,67.73
2019-01-24T12:08:41.306Z,64.07
2019-01-24T12:13:46.734Z,69.63
2019-01-24T12:18:52.490Z,45.57
2019-01-24T12:23:57.910Z,52.57
2019-01-24T12:29:03.687Z,54.47
2019-01-24T12:34:09.447Z,54.83
2019-01-24T12:39:14.870Z,56.80
2019-01-24T12:44:21.288Z,54.03
2019-01-24T12:49:25.787Z,49.87
2019-01-24T12:54:31.206Z,53.83
2019-01-24T12:59:36.994Z,51.87
2019-01-24T13:04:42.759Z,60.43
2019-01-24T13:09:48.444Z,55.30
2019-01-24T13:14:54.213Z,59.00
2019-01-24T13:20:00.179Z,55.37
2019-01-24T13:25:08.502Z,64.53
2019-01-24T13:30:20.289Z,61.57
2019-01-24T13:35:25.731Z,53.80
2019-01-24T13:40:32.774Z,57.17
2019-01-24T13:45:39.910Z,59.47
2019-01-24T13:50:46.090Z,57.20
2019-01-24T13:55:52.250Z,47.93
2019-01-24T14:00:57.994Z,54.47
2019-01-24T14:06:03.849Z,71.47
2019-01-24T14:11:09.289Z,69.83
2019-01-24T14:16:15.417Z,71.83
2019-01-24T14:21:21.668Z,53.67
2019-01-24T14:26:27.319Z,58.23
2019-01-24T14:31:33.290Z,70.03
2019-01-24T14:36:39.531Z,69.77
2019-01-24T14:41:45.006Z,64.87
2019-01-24T14:46:50.578Z,67.40
2019-01-24T14:51:56.357Z,66.83
2019-01-24T14:57:02.134Z,60.27
2019-01-24T15:02:07.960Z,67.40
2019-01-24T15:07:13.468Z,75.03
2019-01-24T15:12:19.523Z,104.15
2019-01-24T15:17:25.594Z,106.15
2019-01-24T15:22:31.322Z,88.23
2019-01-24T15:27:37.310Z,78.37
2019-01-24T15:32:43.170Z,82.63
2019-01-24T15:37:54.433Z,74.77
2019-01-24T15:42:54.864Z,76.37
2019-01-24T15:48:00.314Z,79.67
2019-01-24T15:53:06.113Z,73.73
2019-01-24T15:58:11.906Z,65.47
2019-01-24T16:03:17.349Z,77.57
2019-01-24T16:08:23.034Z,80.90
2019-01-24T16:13:28.746Z,75.37
2019-01-24T16:18:34.859Z,75.13
2019-01-24T16:23:40.420Z,79.00
2019-01-24T16:28:46.258Z,76.33
2019-01-24T16:33:51.918Z,87.23
2019-01-24T16:38:57.355Z,76.90
2019-01-24T16:44:02.914Z,59.23
2019-01-24T16:49:09.226Z,76.83
2019-01-24T16:54:15.043Z,71.23
2019-01-24T16:59:20.466Z,63.70
2019-01-24T17:04:26.582Z,74.10
2019-01-24T17:09:32.702Z,57.73
2019-01-24T17:14:38.698Z,56.10
2019-01-24T17:19:44.451Z,59.73
2019-01-24T17:24:50.341Z,53.57
2019-01-24T17:29:55.806Z,68.37
2019-01-24T17:35:01.259Z,66.97
2019-01-24T17:40:10.621Z,63.47
2019-01-24T17:45:16.391Z,66.70
2019-01-24T17:50:21.814Z,73.27
2019-01-24T17:55:32.481Z,63.70
2019-01-24T18:00:39.011Z,67.83
2019-01-24T18:05:44.615Z,66.33
2019-01-24T18:10:50.382Z,59.17
2019-01-24T18:15:55.927Z,61.80
2019-01-24T18:21:01.715Z,59.27
2019-01-24T18:26:07.573Z,55.87
2019-01-24T18:31:13.353Z,64.67
2019-01-24T18:36:19.214Z,66.30
2019-01-24T18:41:24.738Z,75.93
2019-01-24T18:46:30.567Z,66.07
2019-01-24T18:51:36.795Z,66.13
2019-01-24T18:56:42.958Z,61.17
2019-01-24T19:01:48.794Z,66.77
2019-01-24T19:06:54.305Z,67.30
2019-01-24T19:11:59.799Z,74.90
2019-01-24T19:17:05.319Z,75.53
2019-01-24T19:22:11.534Z,69.60
2019-01-24T19:27:17.758Z,69.20
2019-01-24T19:32:23.598Z,64.30
2019-01-24T19:37:29.110Z,70.63
2019-01-24T19:42:34.879Z,67.77
2019-01-24T19:47:40.431Z,75.67
2019-01-24T19:52:45.854Z,69.57
2019-01-24T19:57:51.652Z,64.97
2019-01-24T20:02:57.695Z,70.43
2019-01-24T20:08:03.442Z,55.47
2019-01-24T20:13:08.923Z,62.67
2019-01-24T20:18:14.342Z,69.23
2019-01-24T20:23:20.195Z,78.63
2019-01-24T20:28:25.607Z,66.67
2019-01-24T20:33:31.022Z,67.93
2019-01-24T20:38:36.611Z,68.17
2019-01-24T20:43:42.373Z,66.33
2019-01-24T20:48:47.802Z,76.70
2019-01-24T20:53:53.909Z,70.77
2019-01-24T20:58:59.401Z,58.00
2019-01-24T21:04:05.200Z,67.97
2019-01-24T21:09:14.657Z,71.93
2019-01-24T21:14:16.276Z,62.27
2019-01-24T21:19:21.691Z,60.57
2019-01-24T21:24:27.102Z,71.63
2019-01-24T21:29:32.519Z,63.33
2019-01-24T21:34:37.991Z,69.20
2019-01-24T21:39:43.407Z,58.63
2019-01-24T21:44:49.174Z,63.23
2019-01-24T21:49:54.586Z,55.93
2019-01-24T21:55:00.342Z,54.80
2019-01-24T22:00:06.819Z,62.33
2019-01-24T22:05:12.397Z,57.80
2019-01-24T22:10:20.859Z,61.43
2019-01-24T22:15:28.702Z,65.10
2019-01-24T22:20:34.162Z,57.93
2019-01-24T22:25:39.593Z,63.40
2019-01-24T22:30:50.281Z,64.87
2019-01-24T22:35:55.694Z,61.30
2019-01-24T22:41:01.483Z,72.27
2019-01-24T22:46:07.246Z,54.87
2019-01-24T22:51:13.002Z,61.87
2019-01-24T22:56:19.145Z,78.47
2019-01-24T23:01:37.662Z,58.77
2019-01-24T23:06:43.410Z,63.63
2019-01-24T23:11:48.852Z,67.83
2019-01-24T23:16:54.974Z,67.27
2019-01-24T23:22:00.426Z,63.20
2019-01-24T23:27:05.897Z,64.67
2019-01-24T23:32:11.644Z,63.63
2019-01-24T23:37:17.422Z,69.27
2019-01-24T23:42:23.194Z,67.10
2019-01-24T23:47:29.006Z,65.23
2019-01-24T23:52:34.810Z,65.13
2019-01-24T23:57:40.050Z,68.83
